KSLG/SLG METAR and TAF weather

Enter ICAO airport designator
Station Type Date Time Source
KSLG METAR 2021/09/27 05:56 UTC NOAA

KSLG 270556Z AUTO 18005KT 10SM CLR 19/12 A3002 RMK AO2 SLP153 T01940117 10261 20194 403170117 50001 TSNO


Station Type Date Time Source
KSLG Decoded METAR 2021/09/27 05:56 UTC NOAA

Siloam Springs, Smith Field Airport, AR, United States (KSLG) 36-12N 094-29W
Sep 27, 2021 - 01:56 AM EDT / 2021.09.27 0556 UTC
Wind: from the S (180 degrees) at 6 MPH (5 KT):0
Visibility: 10 mile(s):0
Sky conditions: clear
Temperature: 66.9 F (19.4 C)
Dew Point: 53.1 F (11.7 C)
Relative Humidity: 61%
Pressure (altimeter): 30.02 in. Hg (1016 hPa)
Pressure tendency: 0.00 inches (0.1 hPa) higher than three hours ago
ob: KSLG 270556Z AUTO 18005KT 10SM CLR 19/12 A3002 RMK AO2 SLP153 T01940117 10261 20194 403170117 50001 TSNO
cycle: 6

Station Type Date Time Source
KSLG TAF UTC NOAA

Error!

Example: see airport list